sensor_id;sensor_type;location;lat;lon;timestamp;P1;durP1;ratioP1;P2;durP2;ratioP2
65009;SDS011;51556;50.002;22.014;2023-03-01T00:02:19;228.50;;;86.00;;
65009;SDS011;51556;50.002;22.014;2023-03-01T00:04:44;257.60;;;95.70;;
65009;SDS011;51556;50.002;22.014;2023-03-01T00:07:10;243.60;;;96.40;;
65009;SDS011;51556;50.002;22.014;2023-03-01T00:09:36;130.00;;;39.80;;
65009;SDS011;51556;50.002;22.014;2023-03-01T00:12:02;210.10;;;81.20;;
65009;SDS011;51556;50.002;22.014;2023-03-01T00:14:28;189.40;;;77.00;;
65009;SDS011;51556;50.002;22.014;2023-03-01T00:16:54;199.60;;;78.60;;
65009;SDS011;51556;50.002;22.014;2023-03-01T00:19:19;196.60;;;78.50;;
65009;SDS011;51556;50.002;22.014;2023-03-01T00:21:47;197.90;;;76.70;;
65009;SDS011;51556;50.002;22.014;2023-03-01T00:24:12;183.90;;;74.90;;
65009;SDS011;51556;50.002;22.014;2023-03-01T00:26:38;198.20;;;76.10;;
65009;SDS011;51556;50.002;22.014;2023-03-01T00:29:04;184.50;;;75.50;;
65009;SDS011;51556;50.002;22.014;2023-03-01T00:31:30;194.60;;;78.20;;
65009;SDS011;51556;50.002;22.014;2023-03-01T00:34:01;196.40;;;75.50;;
65009;SDS011;51556;50.002;22.014;2023-03-01T00:36:31;193.20;;;76.90;;
65009;SDS011;51556;50.002;22.014;2023-03-01T00:38:58;170.90;;;73.50;;
65009;SDS011;51556;50.002;22.014;2023-03-01T00:41:24;185.20;;;75.00;;
65009;SDS011;51556;50.002;22.014;2023-03-01T00:43:52;191.90;;;75.30;;
65009;SDS011;51556;50.002;22.014;2023-03-01T00:46:19;204.10;;;79.70;;
65009;SDS011;51556;50.002;22.014;2023-03-01T00:48:46;177.40;;;73.30;;
65009;SDS011;51556;50.002;22.014;2023-03-01T00:53:42;188.10;;;74.00;;
65009;SDS011;51556;50.002;22.014;2023-03-01T00:56:09;186.30;;;73.40;;
65009;SDS011;51556;50.002;22.014;2023-03-01T00:58:36;176.80;;;70.90;;
65009;SDS011;51556;50.002;22.014;2023-03-01T01:01:13;157.30;;;56.00;;
65009;SDS011;51556;50.002;22.014;2023-03-01T01:03:44;177.70;;;71.70;;
65009;SDS011;51556;50.002;22.014;2023-03-01T01:06:14;162.90;;;64.00;;
65009;SDS011;51556;50.002;22.014;2023-03-01T01:08:43;178.90;;;65.90;;
65009;SDS011;51556;50.002;22.014;2023-03-01T01:11:10;166.10;;;67.60;;
65009;SDS011;51556;50.002;22.014;2023-03-01T01:13:36;178.80;;;66.10;;
65009;SDS011;51556;50.002;22.014;2023-03-01T01:16:02;155.80;;;65.00;;
65009;SDS011;51556;50.002;22.014;2023-03-01T01:18:28;153.60;;;64.40;;
65009;SDS011;51556;50.002;22.014;2023-03-01T01:20:54;163.60;;;64.40;;
65009;SDS011;51556;50.002;22.014;2023-03-01T01:23:19;168.80;;;65.50;;
65009;SDS011;51556;50.002;22.014;2023-03-01T01:25:44;149.60;;;63.00;;
65009;SDS011;51556;50.002;22.014;2023-03-01T01:28:10;138.40;;;54.50;;
65009;SDS011;51556;50.002;22.014;2023-03-01T01:30:35;150.90;;;61.70;;
65009;SDS011;51556;50.002;22.014;2023-03-01T01:33:01;161.90;;;63.20;;
65009;SDS011;51556;50.002;22.014;2023-03-01T01:35:27;173.70;;;64.30;;
65009;SDS011;51556;50.002;22.014;2023-03-01T01:37:52;163.60;;;67.70;;
65009;SDS011;51556;50.002;22.014;2023-03-01T01:40:18;173.90;;;67.20;;
65009;SDS011;51556;50.002;22.014;2023-03-01T01:42:43;163.60;;;62.20;;
65009;SDS011;51556;50.002;22.014;2023-03-01T01:45:26;150.80;;;63.00;;
65009;SDS011;51556;50.002;22.014;2023-03-01T01:48:10;148.30;;;60.40;;
65009;SDS011;51556;50.002;22.014;2023-03-01T01:50:39;154.60;;;62.30;;
65009;SDS011;51556;50.002;22.014;2023-03-01T01:53:07;143.90;;;55.00;;
65009;SDS011;51556;50.002;22.014;2023-03-01T01:55:39;153.80;;;59.70;;
65009;SDS011;51556;50.002;22.014;2023-03-01T01:58:08;138.90;;;56.70;;
65009;SDS011;51556;50.002;22.014;2023-03-01T02:00:37;136.70;;;56.10;;
65009;SDS011;51556;50.002;22.014;2023-03-01T02:03:08;157.60;;;61.40;;
65009;SDS011;51556;50.002;22.014;2023-03-01T02:08:25;156.70;;;62.70;;
65009;SDS011;51556;50.002;22.014;2023-03-01T02:10:55;146.50;;;56.80;;
65009;SDS011;51556;50.002;22.014;2023-03-01T02:13:22;150.30;;;60.00;;
65009;SDS011;51556;50.002;22.014;2023-03-01T02:15:48;151.70;;;61.40;;
65009;SDS011;51556;50.002;22.014;2023-03-01T02:18:14;156.20;;;60.50;;
65009;SDS011;51556;50.002;22.014;2023-03-01T02:20:45;140.10;;;50.50;;
65009;SDS011;51556;50.002;22.014;2023-03-01T02:23:32;153.80;;;58.90;;
65009;SDS011;51556;50.002;22.014;2023-03-01T02:26:01;148.90;;;59.00;;
65009;SDS011;51556;50.002;22.014;2023-03-01T02:28:36;138.90;;;53.20;;
65009;SDS011;51556;50.002;22.014;2023-03-01T02:31:07;133.10;;;57.40;;
65009;SDS011;51556;50.002;22.014;2023-03-01T02:33:52;148.40;;;60.70;;
65009;SDS011;51556;50.002;22.014;2023-03-01T02:36:20;127.70;;;55.60;;
65009;SDS011;51556;50.002;22.014;2023-03-01T02:41:17;144.70;;;56.20;;
65009;SDS011;51556;50.002;22.014;2023-03-01T02:43:44;119.60;;;48.20;;
65009;SDS011;51556;50.002;22.014;2023-03-01T02:46:18;139.50;;;56.20;;
65009;SDS011;51556;50.002;22.014;2023-03-01T02:48:51;132.40;;;56.10;;
65009;SDS011;51556;50.002;22.014;2023-03-01T02:53:53;132.30;;;54.80;;
65009;SDS011;51556;50.002;22.014;2023-03-01T02:56:20;137.40;;;53.30;;
65009;SDS011;51556;50.002;22.014;2023-03-01T02:58:46;134.00;;;53.40;;
65009;SDS011;51556;50.002;22.014;2023-03-01T03:01:16;127.40;;;51.50;;
65009;SDS011;51556;50.002;22.014;2023-03-01T03:03:43;127.90;;;53.00;;
65009;SDS011;51556;50.002;22.014;2023-03-01T03:06:09;119.60;;;51.80;;
65009;SDS011;51556;50.002;22.014;2023-03-01T03:08:35;113.10;;;46.80;;
65009;SDS011;51556;50.002;22.014;2023-03-01T03:11:01;125.90;;;43.70;;
65009;SDS011;51556;50.002;22.014;2023-03-01T03:13:26;123.00;;;52.10;;
65009;SDS011;51556;50.002;22.014;2023-03-01T03:15:56;135.20;;;55.10;;
65009;SDS011;51556;50.002;22.014;2023-03-01T03:18:23;125.70;;;48.80;;
65009;SDS011;51556;50.002;22.014;2023-03-01T03:20:51;118.70;;;52.60;;
65009;SDS011;51556;50.002;22.014;2023-03-01T03:23:24;141.10;;;54.50;;
65009;SDS011;51556;50.002;22.014;2023-03-01T03:25:51;108.70;;;43.40;;
65009;SDS011;51556;50.002;22.014;2023-03-01T03:28:17;143.00;;;56.10;;
65009;SDS011;51556;50.002;22.014;2023-03-01T03:30:43;116.50;;;50.70;;
65009;SDS011;51556;50.002;22.014;2023-03-01T03:33:09;130.30;;;53.30;;
65009;SDS011;51556;50.002;22.014;2023-03-01T03:35:47;136.60;;;53.60;;
65009;SDS011;51556;50.002;22.014;2023-03-01T03:38:14;100.60;;;38.10;;
65009;SDS011;51556;50.002;22.014;2023-03-01T03:40:55;122.30;;;50.90;;
65009;SDS011;51556;50.002;22.014;2023-03-01T03:43:27;105.60;;;44.80;;
65009;SDS011;51556;50.002;22.014;2023-03-01T03:45:54;139.80;;;56.10;;
65009;SDS011;51556;50.002;22.014;2023-03-01T03:48:22;134.40;;;55.20;;
65009;SDS011;51556;50.002;22.014;2023-03-01T03:50:58;144.50;;;51.90;;
65009;SDS011;51556;50.002;22.014;2023-03-01T03:53:24;132.10;;;52.00;;
65009;SDS011;51556;50.002;22.014;2023-03-01T03:55:52;117.90;;;50.60;;
65009;SDS011;51556;50.002;22.014;2023-03-01T03:58:18;135.90;;;50.90;;
65009;SDS011;51556;50.002;22.014;2023-03-01T04:00:46;120.40;;;48.20;;
65009;SDS011;51556;50.002;22.014;2023-03-01T04:03:14;124.50;;;49.30;;
65009;SDS011;51556;50.002;22.014;2023-03-01T04:05:41;118.90;;;49.00;;
65009;SDS011;51556;50.002;22.014;2023-03-01T04:08:08;116.40;;;49.50;;
65009;SDS011;51556;50.002;22.014;2023-03-01T04:10:38;126.20;;;52.50;;
65009;SDS011;51556;50.002;22.014;2023-03-01T04:13:05;110.20;;;46.80;;
65009;SDS011;51556;50.002;22.014;2023-03-01T04:15:32;110.30;;;48.50;;
65009;SDS011;51556;50.002;22.014;2023-03-01T04:17:58;127.30;;;49.10;;
65009;SDS011;51556;50.002;22.014;2023-03-01T04:20:27;116.20;;;46.30;;
65009;SDS011;51556;50.002;22.014;2023-03-01T04:23:00;116.80;;;46.80;;
65009;SDS011;51556;50.002;22.014;2023-03-01T04:25:59;110.50;;;45.50;;
65009;SDS011;51556;50.002;22.014;2023-03-01T04:28:28;114.40;;;44.70;;
65009;SDS011;51556;50.002;22.014;2023-03-01T04:30:57;112.60;;;42.30;;
65009;SDS011;51556;50.002;22.014;2023-03-01T04:33:24;82.30;;;31.80;;
65009;SDS011;51556;50.002;22.014;2023-03-01T04:35:50;108.90;;;45.50;;
65009;SDS011;51556;50.002;22.014;2023-03-01T04:38:16;104.30;;;44.80;;
65009;SDS011;51556;50.002;22.014;2023-03-01T04:40:43;112.80;;;44.20;;
65009;SDS011;51556;50.002;22.014;2023-03-01T04:43:10;109.10;;;43.20;;
65009;SDS011;51556;50.002;22.014;2023-03-01T04:45:39;109.80;;;46.10;;
65009;SDS011;51556;50.002;22.014;2023-03-01T04:48:05;120.40;;;47.30;;
65009;SDS011;51556;50.002;22.014;2023-03-01T04:50:31;114.50;;;47.60;;
65009;SDS011;51556;50.002;22.014;2023-03-01T04:52:56;119.40;;;49.10;;
65009;SDS011;51556;50.002;22.014;2023-03-01T04:55:24;111.80;;;47.20;;
65009;SDS011;51556;50.002;22.014;2023-03-01T04:57:51;105.20;;;47.60;;
65009;SDS011;51556;50.002;22.014;2023-03-01T05:00:16;111.10;;;47.10;;
65009;SDS011;51556;50.002;22.014;2023-03-01T05:02:47;159.50;;;57.30;;
65009;SDS011;51556;50.002;22.014;2023-03-01T05:05:41;162.50;;;57.90;;
65009;SDS011;51556;50.002;22.014;2023-03-01T05:08:07;142.50;;;57.60;;
65009;SDS011;51556;50.002;22.014;2023-03-01T05:10:34;175.50;;;64.40;;
65009;SDS011;51556;50.002;22.014;2023-03-01T05:13:01;144.20;;;57.50;;
65009;SDS011;51556;50.002;22.014;2023-03-01T05:15:29;153.00;;;59.40;;
65009;SDS011;51556;50.002;22.014;2023-03-01T05:17:56;151.70;;;56.70;;
65009;SDS011;51556;50.002;22.014;2023-03-01T05:20:24;138.80;;;58.50;;
65009;SDS011;51556;50.002;22.014;2023-03-01T05:22:57;146.50;;;57.80;;
65009;SDS011;51556;50.002;22.014;2023-03-01T05:25:24;149.60;;;58.90;;
65009;SDS011;51556;50.002;22.014;2023-03-01T05:27:51;156.00;;;58.50;;
65009;SDS011;51556;50.002;22.014;2023-03-01T05:30:16;148.40;;;60.10;;
65009;SDS011;51556;50.002;22.014;2023-03-01T05:32:43;133.40;;;55.60;;
65009;SDS011;51556;50.002;22.014;2023-03-01T05:35:11;131.10;;;53.10;;
65009;SDS011;51556;50.002;22.014;2023-03-01T05:37:41;129.40;;;51.60;;
65009;SDS011;51556;50.002;22.014;2023-03-01T05:40:09;119.60;;;48.80;;
65009;SDS011;51556;50.002;22.014;2023-03-01T05:42:46;126.80;;;47.50;;
65009;SDS011;51556;50.002;22.014;2023-03-01T05:45:13;117.70;;;46.80;;
65009;SDS011;51556;50.002;22.014;2023-03-01T05:47:40;109.90;;;45.00;;
65009;SDS011;51556;50.002;22.014;2023-03-01T05:50:18;113.10;;;46.20;;
65009;SDS011;51556;50.002;22.014;2023-03-01T05:52:47;129.10;;;50.20;;
65009;SDS011;51556;50.002;22.014;2023-03-01T05:55:14;129.70;;;49.70;;
65009;SDS011;51556;50.002;22.014;2023-03-01T05:57:45;114.40;;;47.70;;
65009;SDS011;51556;50.002;22.014;2023-03-01T06:00:12;116.80;;;48.20;;
65009;SDS011;51556;50.002;22.014;2023-03-01T06:02:40;117.50;;;48.50;;
65009;SDS011;51556;50.002;22.014;2023-03-01T06:05:07;110.40;;;46.50;;
65009;SDS011;51556;50.002;22.014;2023-03-01T06:07:34;109.20;;;45.60;;
65009;SDS011;51556;50.002;22.014;2023-03-01T06:10:12;118.50;;;48.80;;
65009;SDS011;51556;50.002;22.014;2023-03-01T06:12:38;114.00;;;45.90;;
65009;SDS011;51556;50.002;22.014;2023-03-01T06:15:06;111.20;;;45.80;;
65009;SDS011;51556;50.002;22.014;2023-03-01T06:17:35;97.90;;;37.80;;
65009;SDS011;51556;50.002;22.014;2023-03-01T06:20:05;127.20;;;47.30;;
65009;SDS011;51556;50.002;22.014;2023-03-01T06:22:33;93.70;;;33.90;;
65009;SDS011;51556;50.002;22.014;2023-03-01T06:24:59;105.90;;;41.90;;
65009;SDS011;51556;50.002;22.014;2023-03-01T06:27:24;116.00;;;44.60;;
65009;SDS011;51556;50.002;22.014;2023-03-01T06:29:50;123.30;;;45.90;;
65009;SDS011;51556;50.002;22.014;2023-03-01T06:32:16;100.80;;;42.30;;
65009;SDS011;51556;50.002;22.014;2023-03-01T06:34:41;100.40;;;39.20;;
65009;SDS011;51556;50.002;22.014;2023-03-01T06:37:07;102.90;;;42.20;;
65009;SDS011;51556;50.002;22.014;2023-03-01T06:39:33;100.40;;;40.70;;
65009;SDS011;51556;50.002;22.014;2023-03-01T06:41:59;86.80;;;38.40;;
65009;SDS011;51556;50.002;22.014;2023-03-01T06:44:25;92.40;;;39.60;;
65009;SDS011;51556;50.002;22.014;2023-03-01T06:46:51;94.40;;;38.00;;
65009;SDS011;51556;50.002;22.014;2023-03-01T06:49:16;87.50;;;38.60;;
65009;SDS011;51556;50.002;22.014;2023-03-01T06:51:43;81.60;;;37.40;;
65009;SDS011;51556;50.002;22.014;2023-03-01T06:54:09;70.20;;;32.40;;
65009;SDS011;51556;50.002;22.014;2023-03-01T06:56:35;74.30;;;31.50;;
65009;SDS011;51556;50.002;22.014;2023-03-01T06:59:00;71.20;;;31.60;;
65009;SDS011;51556;50.002;22.014;2023-03-01T07:01:27;72.20;;;33.20;;
65009;SDS011;51556;50.002;22.014;2023-03-01T07:03:53;70.40;;;32.40;;
65009;SDS011;51556;50.002;22.014;2023-03-01T07:06:18;78.30;;;32.80;;
65009;SDS011;51556;50.002;22.014;2023-03-01T07:08:44;71.00;;;31.80;;
65009;SDS011;51556;50.002;22.014;2023-03-01T07:11:11;68.90;;;32.00;;
65009;SDS011;51556;50.002;22.014;2023-03-01T07:13:37;68.10;;;31.10;;
65009;SDS011;51556;50.002;22.014;2023-03-01T07:16:02;84.40;;;32.80;;
65009;SDS011;51556;50.002;22.014;2023-03-01T07:18:28;63.80;;;31.20;;
65009;SDS011;51556;50.002;22.014;2023-03-01T07:20:54;68.70;;;33.10;;
65009;SDS011;51556;50.002;22.014;2023-03-01T07:23:19;57.90;;;30.60;;
65009;SDS011;51556;50.002;22.014;2023-03-01T07:25:50;68.10;;;29.00;;
65009;SDS011;51556;50.002;22.014;2023-03-01T07:28:17;67.90;;;30.10;;
65009;SDS011;51556;50.002;22.014;2023-03-01T07:30:43;67.80;;;30.80;;
65009;SDS011;51556;50.002;22.014;2023-03-01T07:33:08;74.30;;;31.70;;
65009;SDS011;51556;50.002;22.014;2023-03-01T07:35:34;65.50;;;29.60;;
65009;SDS011;51556;50.002;22.014;2023-03-01T07:37:59;60.00;;;27.60;;
65009;SDS011;51556;50.002;22.014;2023-03-01T07:40:25;59.10;;;27.30;;
65009;SDS011;51556;50.002;22.014;2023-03-01T07:42:54;45.80;;;21.80;;
65009;SDS011;51556;50.002;22.014;2023-03-01T07:45:21;63.50;;;28.00;;
65009;SDS011;51556;50.002;22.014;2023-03-01T07:47:46;56.00;;;26.70;;
65009;SDS011;51556;50.002;22.014;2023-03-01T07:50:12;60.80;;;29.70;;
65009;SDS011;51556;50.002;22.014;2023-03-01T07:52:38;62.50;;;28.60;;
65009;SDS011;51556;50.002;22.014;2023-03-01T07:55:04;64.80;;;27.80;;
65009;SDS011;51556;50.002;22.014;2023-03-01T07:57:39;59.40;;;26.80;;
65009;SDS011;51556;50.002;22.014;2023-03-01T08:00:05;54.30;;;27.90;;
65009;SDS011;51556;50.002;22.014;2023-03-01T08:02:32;61.20;;;28.70;;
65009;SDS011;51556;50.002;22.014;2023-03-01T08:04:57;63.60;;;28.80;;
65009;SDS011;51556;50.002;22.014;2023-03-01T08:07:23;59.80;;;28.30;;
65009;SDS011;51556;50.002;22.014;2023-03-01T08:09:48;58.80;;;28.30;;
65009;SDS011;51556;50.002;22.014;2023-03-01T08:12:14;61.00;;;28.10;;
65009;SDS011;51556;50.002;22.014;2023-03-01T08:14:41;59.40;;;28.70;;
65009;SDS011;51556;50.002;22.014;2023-03-01T08:17:07;61.70;;;28.20;;
65009;SDS011;51556;50.002;22.014;2023-03-01T08:19:33;55.80;;;26.00;;
65009;SDS011;51556;50.002;22.014;2023-03-01T08:22:00;53.70;;;27.00;;
65009;SDS011;51556;50.002;22.014;2023-03-01T08:24:26;57.20;;;25.90;;
65009;SDS011;51556;50.002;22.014;2023-03-01T08:26:52;52.20;;;25.40;;
65009;SDS011;51556;50.002;22.014;2023-03-01T08:29:18;51.50;;;25.20;;
65009;SDS011;51556;50.002;22.014;2023-03-01T08:31:44;49.40;;;23.80;;
65009;SDS011;51556;50.002;22.014;2023-03-01T08:34:11;45.50;;;23.40;;
65009;SDS011;51556;50.002;22.014;2023-03-01T08:36:39;55.90;;;25.50;;
65009;SDS011;51556;50.002;22.014;2023-03-01T08:39:07;49.50;;;25.60;;
65009;SDS011;51556;50.002;22.014;2023-03-01T08:41:34;43.40;;;20.90;;
65009;SDS011;51556;50.002;22.014;2023-03-01T08:43:59;49.30;;;24.50;;
65009;SDS011;51556;50.002;22.014;2023-03-01T08:46:26;53.00;;;25.20;;
65009;SDS011;51556;50.002;22.014;2023-03-01T08:48:58;54.00;;;24.50;;
65009;SDS011;51556;50.002;22.014;2023-03-01T08:51:24;51.80;;;24.20;;
65009;SDS011;51556;50.002;22.014;2023-03-01T08:53:51;50.50;;;24.70;;
65009;SDS011;51556;50.002;22.014;2023-03-01T08:56:26;55.40;;;26.50;;
65009;SDS011;51556;50.002;22.014;2023-03-01T08:58:51;50.10;;;24.70;;
65009;SDS011;51556;50.002;22.014;2023-03-01T09:01:17;73.60;;;31.10;;
65009;SDS011;51556;50.002;22.014;2023-03-01T09:03:44;55.00;;;24.20;;
65009;SDS011;51556;50.002;22.014;2023-03-01T09:06:10;44.60;;;21.50;;
65009;SDS011;51556;50.002;22.014;2023-03-01T09:08:40;47.80;;;23.70;;
65009;SDS011;51556;50.002;22.014;2023-03-01T09:11:08;51.10;;;24.80;;
65009;SDS011;51556;50.002;22.014;2023-03-01T09:13:35;45.30;;;24.20;;
65009;SDS011;51556;50.002;22.014;2023-03-01T09:16:01;45.90;;;22.80;;
65009;SDS011;51556;50.002;22.014;2023-03-01T09:18:28;39.90;;;19.10;;
65009;SDS011;51556;50.002;22.014;2023-03-01T09:21:04;42.90;;;19.80;;
65009;SDS011;51556;50.002;22.014;2023-03-01T09:23:40;38.70;;;17.50;;
65009;SDS011;51556;50.002;22.014;2023-03-01T09:26:10;38.10;;;19.20;;
65009;SDS011;51556;50.002;22.014;2023-03-01T09:28:38;67.50;;;34.00;;
65009;SDS011;51556;50.002;22.014;2023-03-01T09:31:09;58.80;;;31.90;;
65009;SDS011;51556;50.002;22.014;2023-03-01T09:33:38;37.50;;;19.40;;
65009;SDS011;51556;50.002;22.014;2023-03-01T09:36:04;34.90;;;18.30;;
65009;SDS011;51556;50.002;22.014;2023-03-01T09:38:32;23.00;;;13.50;;
65009;SDS011;51556;50.002;22.014;2023-03-01T09:40:59;28.60;;;15.20;;
65009;SDS011;51556;50.002;22.014;2023-03-01T09:46:13;48.80;;;21.90;;
65009;SDS011;51556;50.002;22.014;2023-03-01T09:49:02;33.40;;;11.90;;
65009;SDS011;51556;50.002;22.014;2023-03-01T09:51:33;26.80;;;13.70;;
65009;SDS011;51556;50.002;22.014;2023-03-01T09:54:03;29.10;;;13.40;;
65009;SDS011;51556;50.002;22.014;2023-03-01T09:56:34;27.40;;;14.20;;
65009;SDS011;51556;50.002;22.014;2023-03-01T10:04:27;21.60;;;12.90;;
65009;SDS011;51556;50.002;22.014;2023-03-01T10:09:35;29.20;;;13.90;;
65009;SDS011;51556;50.002;22.014;2023-03-01T10:12:02;27.30;;;13.90;;
65009;SDS011;51556;50.002;22.014;2023-03-01T10:17:12;28.10;;;13.90;;
65009;SDS011;51556;50.002;22.014;2023-03-01T10:19:45;24.80;;;13.60;;
65009;SDS011;51556;50.002;22.014;2023-03-01T10:24:59;30.40;;;13.50;;
65009;SDS011;51556;50.002;22.014;2023-03-01T10:27:35;37.80;;;18.40;;
65009;SDS011;51556;50.002;22.014;2023-03-01T10:30:35;28.10;;;12.00;;
65009;SDS011;51556;50.002;22.014;2023-03-01T10:33:07;28.90;;;17.20;;
65009;SDS011;51556;50.002;22.014;2023-03-01T10:35:42;33.10;;;15.50;;
65009;SDS011;51556;50.002;22.014;2023-03-01T10:38:09;21.50;;;11.50;;
65009;SDS011;51556;50.002;22.014;2023-03-01T10:40:49;31.80;;;15.80;;
65009;SDS011;51556;50.002;22.014;2023-03-01T10:43:22;35.70;;;18.00;;
65009;SDS011;51556;50.002;22.014;2023-03-01T10:45:49;30.70;;;15.70;;
65009;SDS011;51556;50.002;22.014;2023-03-01T10:48:16;28.70;;;15.10;;
65009;SDS011;51556;50.002;22.014;2023-03-01T10:50:50;32.20;;;17.20;;
65009;SDS011;51556;50.002;22.014;2023-03-01T10:53:35;31.40;;;16.10;;
65009;SDS011;51556;50.002;22.014;2023-03-01T10:56:12;31.70;;;15.80;;
65009;SDS011;51556;50.002;22.014;2023-03-01T11:01:34;78.80;;;28.80;;
65009;SDS011;51556;50.002;22.014;2023-03-01T11:06:32;30.10;;;15.00;;
65009;SDS011;51556;50.002;22.014;2023-03-01T11:09:15;30.70;;;15.30;;
65009;SDS011;51556;50.002;22.014;2023-03-01T11:11:43;27.40;;;14.40;;
65009;SDS011;51556;50.002;22.014;2023-03-01T11:14:14;32.10;;;15.40;;
65009;SDS011;51556;50.002;22.014;2023-03-01T11:16:44;27.40;;;16.10;;
65009;SDS011;51556;50.002;22.014;2023-03-01T11:21:37;29.20;;;16.00;;
65009;SDS011;51556;50.002;22.014;2023-03-01T11:24:11;36.80;;;18.20;;
65009;SDS011;51556;50.002;22.014;2023-03-01T11:26:40;36.00;;;18.60;;
65009;SDS011;51556;50.002;22.014;2023-03-01T11:29:14;29.90;;;16.00;;
65009;SDS011;51556;50.002;22.014;2023-03-01T11:31:46;28.00;;;15.40;;
65009;SDS011;51556;50.002;22.014;2023-03-01T11:34:15;34.20;;;16.20;;
65009;SDS011;51556;50.002;22.014;2023-03-01T11:36:51;31.60;;;15.80;;
65009;SDS011;51556;50.002;22.014;2023-03-01T11:39:24;29.80;;;15.90;;
65009;SDS011;51556;50.002;22.014;2023-03-01T11:42:01;24.70;;;14.60;;
65009;SDS011;51556;50.002;22.014;2023-03-01T11:44:35;29.00;;;14.50;;
65009;SDS011;51556;50.002;22.014;2023-03-01T11:52:21;24.90;;;14.00;;
65009;SDS011;51556;50.002;22.014;2023-03-01T12:06:06;26.80;;;15.20;;
65009;SDS011;51556;50.002;22.014;2023-03-01T12:19:26;26.60;;;14.80;;
65009;SDS011;51556;50.002;22.014;2023-03-01T12:24:40;25.20;;;14.70;;
65009;SDS011;51556;50.002;22.014;2023-03-01T12:38:42;26.90;;;15.20;;
65009;SDS011;51556;50.002;22.014;2023-03-01T12:44:21;21.50;;;13.30;;
65009;SDS011;51556;50.002;22.014;2023-03-01T12:49:23;20.90;;;13.40;;
65009;SDS011;51556;50.002;22.014;2023-03-01T12:51:55;22.20;;;13.40;;
65009;SDS011;51556;50.002;22.014;2023-03-01T12:54:29;21.70;;;14.90;;
65009;SDS011;51556;50.002;22.014;2023-03-01T12:56:57;25.40;;;15.80;;
65009;SDS011;51556;50.002;22.014;2023-03-01T12:59:51;25.00;;;15.40;;
65009;SDS011;51556;50.002;22.014;2023-03-01T13:02:40;25.90;;;16.00;;
65009;SDS011;51556;50.002;22.014;2023-03-01T13:08:15;23.40;;;14.60;;
65009;SDS011;51556;50.002;22.014;2023-03-01T13:10:58;18.00;;;13.30;;
65009;SDS011;51556;50.002;22.014;2023-03-01T13:13:27;20.70;;;13.50;;
65009;SDS011;51556;50.002;22.014;2023-03-01T13:15:54;21.40;;;13.60;;
65009;SDS011;51556;50.002;22.014;2023-03-01T13:20:51;22.10;;;13.70;;
65009;SDS011;51556;50.002;22.014;2023-03-01T13:28:49;14.00;;;10.70;;
65009;SDS011;51556;50.002;22.014;2023-03-01T13:46:50;14.70;;;9.30;;
65009;SDS011;51556;50.002;22.014;2023-03-01T13:49:19;14.90;;;10.00;;
65009;SDS011;51556;50.002;22.014;2023-03-01T13:51:48;13.70;;;9.30;;
65009;SDS011;51556;50.002;22.014;2023-03-01T13:54:15;13.50;;;9.30;;
65009;SDS011;51556;50.002;22.014;2023-03-01T13:56:45;15.30;;;10.30;;
65009;SDS011;51556;50.002;22.014;2023-03-01T14:01:42;12.90;;;8.90;;
65009;SDS011;51556;50.002;22.014;2023-03-01T14:06:48;13.10;;;8.80;;
65009;SDS011;51556;50.002;22.014;2023-03-01T14:09:18;15.80;;;10.70;;
65009;SDS011;51556;50.002;22.014;2023-03-01T14:11:54;13.10;;;8.50;;
65009;SDS011;51556;50.002;22.014;2023-03-01T14:14:46;17.00;;;10.40;;
65009;SDS011;51556;50.002;22.014;2023-03-01T14:17:20;17.10;;;11.10;;
65009;SDS011;51556;50.002;22.014;2023-03-01T14:20:07;16.00;;;11.50;;
65009;SDS011;51556;50.002;22.014;2023-03-01T14:22:38;17.50;;;12.60;;
65009;SDS011;51556;50.002;22.014;2023-03-01T14:30:36;17.20;;;10.90;;
65009;SDS011;51556;50.002;22.014;2023-03-01T14:33:04;12.80;;;8.90;;
65009;SDS011;51556;50.002;22.014;2023-03-01T14:36:04;16.30;;;10.70;;
65009;SDS011;51556;50.002;22.014;2023-03-01T14:38:42;15.50;;;10.90;;
65009;SDS011;51556;50.002;22.014;2023-03-01T14:41:14;14.90;;;10.00;;
65009;SDS011;51556;50.002;22.014;2023-03-01T14:43:44;16.40;;;10.30;;
65009;SDS011;51556;50.002;22.014;2023-03-01T14:49:06;28.10;;;10.80;;
65009;SDS011;51556;50.002;22.014;2023-03-01T14:51:40;17.00;;;10.00;;
65009;SDS011;51556;50.002;22.014;2023-03-01T14:54:51;16.10;;;10.00;;
65009;SDS011;51556;50.002;22.014;2023-03-01T14:57:15;16.70;;;10.80;;
65009;SDS011;51556;50.002;22.014;2023-03-01T14:59:46;27.20;;;12.40;;
65009;SDS011;51556;50.002;22.014;2023-03-01T15:02:17;18.40;;;9.60;;
65009;SDS011;51556;50.002;22.014;2023-03-01T15:04:46;22.40;;;11.40;;
65009;SDS011;51556;50.002;22.014;2023-03-01T15:07:17;18.20;;;10.50;;
65009;SDS011;51556;50.002;22.014;2023-03-01T15:09:43;18.60;;;9.70;;
65009;SDS011;51556;50.002;22.014;2023-03-01T15:14:54;12.90;;;8.20;;
65009;SDS011;51556;50.002;22.014;2023-03-01T15:17:31;19.70;;;10.30;;
65009;SDS011;51556;50.002;22.014;2023-03-01T15:19:59;17.10;;;10.40;;
65009;SDS011;51556;50.002;22.014;2023-03-01T15:22:43;13.70;;;9.10;;
65009;SDS011;51556;50.002;22.014;2023-03-01T15:25:19;19.10;;;11.30;;
65009;SDS011;51556;50.002;22.014;2023-03-01T15:27:48;28.90;;;11.10;;
65009;SDS011;51556;50.002;22.014;2023-03-01T15:30:36;16.40;;;9.30;;
65009;SDS011;51556;50.002;22.014;2023-03-01T15:35:56;30.80;;;15.40;;
65009;SDS011;51556;50.002;22.014;2023-03-01T15:41:02;31.30;;;14.10;;
65009;SDS011;51556;50.002;22.014;2023-03-01T15:43:40;29.10;;;15.60;;
65009;SDS011;51556;50.002;22.014;2023-03-01T15:46:28;25.00;;;13.40;;
65009;SDS011;51556;50.002;22.014;2023-03-01T15:49:04;33.20;;;17.00;;
65009;SDS011;51556;50.002;22.014;2023-03-01T15:51:50;24.80;;;14.00;;
65009;SDS011;51556;50.002;22.014;2023-03-01T15:54:19;17.90;;;9.10;;
65009;SDS011;51556;50.002;22.014;2023-03-01T15:56:47;25.00;;;13.10;;
65009;SDS011;51556;50.002;22.014;2023-03-01T15:59:13;23.40;;;12.30;;
65009;SDS011;51556;50.002;22.014;2023-03-01T16:01:39;25.40;;;14.30;;
65009;SDS011;51556;50.002;22.014;2023-03-01T16:04:09;24.00;;;13.70;;
65009;SDS011;51556;50.002;22.014;2023-03-01T16:06:41;22.10;;;13.10;;
65009;SDS011;51556;50.002;22.014;2023-03-01T16:09:10;26.70;;;14.70;;
65009;SDS011;51556;50.002;22.014;2023-03-01T16:11:37;27.70;;;16.00;;
65009;SDS011;51556;50.002;22.014;2023-03-01T16:14:04;27.50;;;16.00;;
65009;SDS011;51556;50.002;22.014;2023-03-01T16:16:30;31.50;;;15.50;;
65009;SDS011;51556;50.002;22.014;2023-03-01T16:18:56;23.70;;;13.30;;
65009;SDS011;51556;50.002;22.014;2023-03-01T16:21:25;39.20;;;17.80;;
65009;SDS011;51556;50.002;22.014;2023-03-01T16:23:51;31.60;;;16.30;;
65009;SDS011;51556;50.002;22.014;2023-03-01T16:26:17;37.00;;;18.00;;
65009;SDS011;51556;50.002;22.014;2023-03-01T16:28:43;38.40;;;20.10;;